sensor_id;sensor_type;location;lat;lon;timestamp;P1;durP1;ratioP1;P2;durP2;ratioP2
72813;SDS011;60945;48.516;-2.768;2023-03-04T00:01:30;5.82;;;4.30;;
72813;SDS011;60945;48.516;-2.768;2023-03-04T00:03:55;5.43;;;4.25;;
72813;SDS011;60945;48.516;-2.768;2023-03-04T00:06:21;4.82;;;4.00;;
72813;SDS011;60945;48.516;-2.768;2023-03-04T00:08:47;9.25;;;4.20;;
72813;SDS011;60945;48.516;-2.768;2023-03-04T00:11:12;4.35;;;3.95;;
72813;SDS011;60945;48.516;-2.768;2023-03-04T00:13:38;4.57;;;4.18;;
72813;SDS011;60945;48.516;-2.768;2023-03-04T00:16:03;5.75;;;4.45;;
72813;SDS011;60945;48.516;-2.768;2023-03-04T00:18:29;4.28;;;3.95;;
72813;SDS011;60945;48.516;-2.768;2023-03-04T00:20:55;4.55;;;3.95;;
72813;SDS011;60945;48.516;-2.768;2023-03-04T00:23:21;8.55;;;4.38;;
72813;SDS011;60945;48.516;-2.768;2023-03-04T00:25:46;5.03;;;4.38;;
72813;SDS011;60945;48.516;-2.768;2023-03-04T00:28:12;5.13;;;4.25;;
72813;SDS011;60945;48.516;-2.768;2023-03-04T00:30:38;4.60;;;4.00;;
72813;SDS011;60945;48.516;-2.768;2023-03-04T00:33:03;6.47;;;4.10;;
72813;SDS011;60945;48.516;-2.768;2023-03-04T00:35:29;4.82;;;4.40;;
72813;SDS011;60945;48.516;-2.768;2023-03-04T00:37:54;6.07;;;4.72;;
72813;SDS011;60945;48.516;-2.768;2023-03-04T00:40:20;5.88;;;4.57;;
72813;SDS011;60945;48.516;-2.768;2023-03-04T00:42:46;5.35;;;4.85;;
72813;SDS011;60945;48.516;-2.768;2023-03-04T00:45:11;6.03;;;4.88;;
72813;SDS011;60945;48.516;-2.768;2023-03-04T00:47:39;5.95;;;4.10;;
72813;SDS011;60945;48.516;-2.768;2023-03-04T00:50:05;6.10;;;4.50;;
72813;SDS011;60945;48.516;-2.768;2023-03-04T00:52:31;8.48;;;4.50;;
72813;SDS011;60945;48.516;-2.768;2023-03-04T00:54:57;4.97;;;4.47;;
72813;SDS011;60945;48.516;-2.768;2023-03-04T00:57:23;7.70;;;4.70;;
72813;SDS011;60945;48.516;-2.768;2023-03-04T00:59:48;4.90;;;4.40;;
72813;SDS011;60945;48.516;-2.768;2023-03-04T01:02:14;4.75;;;4.35;;
72813;SDS011;60945;48.516;-2.768;2023-03-04T01:04:40;5.68;;;4.43;;
72813;SDS011;60945;48.516;-2.768;2023-03-04T01:07:06;5.85;;;5.35;;
72813;SDS011;60945;48.516;-2.768;2023-03-04T01:09:31;4.90;;;4.50;;
72813;SDS011;60945;48.516;-2.768;2023-03-04T01:11:57;5.28;;;4.78;;
72813;SDS011;60945;48.516;-2.768;2023-03-04T01:14:23;5.55;;;4.93;;
72813;SDS011;60945;48.516;-2.768;2023-03-04T01:16:49;5.53;;;5.07;;
72813;SDS011;60945;48.516;-2.768;2023-03-04T01:19:17;5.28;;;4.85;;
72813;SDS011;60945;48.516;-2.768;2023-03-04T01:21:43;7.72;;;5.15;;
72813;SDS011;60945;48.516;-2.768;2023-03-04T01:24:09;5.63;;;5.00;;
72813;SDS011;60945;48.516;-2.768;2023-03-04T01:26:35;5.00;;;4.40;;
72813;SDS011;60945;48.516;-2.768;2023-03-04T01:29:01;5.35;;;4.78;;
72813;SDS011;60945;48.516;-2.768;2023-03-04T01:31:27;5.13;;;4.40;;
72813;SDS011;60945;48.516;-2.768;2023-03-04T01:33:53;5.78;;;4.40;;
72813;SDS011;60945;48.516;-2.768;2023-03-04T01:36:18;4.88;;;4.38;;
72813;SDS011;60945;48.516;-2.768;2023-03-04T01:38:45;5.80;;;4.38;;
72813;SDS011;60945;48.516;-2.768;2023-03-04T01:41:11;5.97;;;4.22;;
72813;SDS011;60945;48.516;-2.768;2023-03-04T01:43:37;4.53;;;4.13;;
72813;SDS011;60945;48.516;-2.768;2023-03-04T01:46:04;5.85;;;4.22;;
72813;SDS011;60945;48.516;-2.768;2023-03-04T01:48:31;4.60;;;4.20;;
72813;SDS011;60945;48.516;-2.768;2023-03-04T01:51:01;6.28;;;4.28;;
72813;SDS011;60945;48.516;-2.768;2023-03-04T01:53:28;5.60;;;4.10;;
72813;SDS011;60945;48.516;-2.768;2023-03-04T01:55:55;7.25;;;4.47;;
72813;SDS011;60945;48.516;-2.768;2023-03-04T01:58:25;5.00;;;4.22;;
72813;SDS011;60945;48.516;-2.768;2023-03-04T02:00:53;5.47;;;4.43;;
72813;SDS011;60945;48.516;-2.768;2023-03-04T02:03:19;5.32;;;4.45;;
72813;SDS011;60945;48.516;-2.768;2023-03-04T02:05:47;6.60;;;4.50;;
72813;SDS011;60945;48.516;-2.768;2023-03-04T02:08:15;5.22;;;4.30;;
72813;SDS011;60945;48.516;-2.768;2023-03-04T02:10:44;4.70;;;4.30;;
72813;SDS011;60945;48.516;-2.768;2023-03-04T02:13:10;5.43;;;4.80;;
72813;SDS011;60945;48.516;-2.768;2023-03-04T02:15:36;4.70;;;4.30;;
72813;SDS011;60945;48.516;-2.768;2023-03-04T02:18:13;7.28;;;5.22;;
72813;SDS011;60945;48.516;-2.768;2023-03-04T02:20:44;7.57;;;5.28;;
72813;SDS011;60945;48.516;-2.768;2023-03-04T02:25:46;4.72;;;4.18;;
72813;SDS011;60945;48.516;-2.768;2023-03-04T02:28:19;5.18;;;4.68;;
72813;SDS011;60945;48.516;-2.768;2023-03-04T02:30:45;5.32;;;3.97;;
72813;SDS011;60945;48.516;-2.768;2023-03-04T02:33:15;8.95;;;4.30;;
72813;SDS011;60945;48.516;-2.768;2023-03-04T02:35:42;10.13;;;9.43;;
72813;SDS011;60945;48.516;-2.768;2023-03-04T02:38:09;6.20;;;5.60;;
72813;SDS011;60945;48.516;-2.768;2023-03-04T02:40:35;6.28;;;5.47;;
72813;SDS011;60945;48.516;-2.768;2023-03-04T02:43:02;8.25;;;5.47;;
72813;SDS011;60945;48.516;-2.768;2023-03-04T02:45:49;8.27;;;5.13;;
72813;SDS011;60945;48.516;-2.768;2023-03-04T02:48:16;6.40;;;5.43;;
72813;SDS011;60945;48.516;-2.768;2023-03-04T02:50:49;6.10;;;5.50;;
72813;SDS011;60945;48.516;-2.768;2023-03-04T02:53:16;6.57;;;5.70;;
72813;SDS011;60945;48.516;-2.768;2023-03-04T02:55:42;6.75;;;5.75;;
72813;SDS011;60945;48.516;-2.768;2023-03-04T02:58:09;6.10;;;5.60;;
72813;SDS011;60945;48.516;-2.768;2023-03-04T03:00:35;7.25;;;5.63;;
72813;SDS011;60945;48.516;-2.768;2023-03-04T03:03:01;8.98;;;5.88;;
72813;SDS011;60945;48.516;-2.768;2023-03-04T03:05:27;8.18;;;6.00;;
72813;SDS011;60945;48.516;-2.768;2023-03-04T03:07:59;9.27;;;6.70;;
72813;SDS011;60945;48.516;-2.768;2023-03-04T03:10:25;9.10;;;6.50;;
72813;SDS011;60945;48.516;-2.768;2023-03-04T03:12:51;8.63;;;6.70;;
72813;SDS011;60945;48.516;-2.768;2023-03-04T03:15:17;10.98;;;6.20;;
72813;SDS011;60945;48.516;-2.768;2023-03-04T03:17:43;8.35;;;6.57;;
72813;SDS011;60945;48.516;-2.768;2023-03-04T03:20:10;9.32;;;6.63;;
72813;SDS011;60945;48.516;-2.768;2023-03-04T03:22:37;9.52;;;6.40;;
72813;SDS011;60945;48.516;-2.768;2023-03-04T03:25:03;11.55;;;7.00;;
72813;SDS011;60945;48.516;-2.768;2023-03-04T03:27:30;8.52;;;6.88;;
72813;SDS011;60945;48.516;-2.768;2023-03-04T03:29:56;11.13;;;6.80;;
72813;SDS011;60945;48.516;-2.768;2023-03-04T03:32:21;9.68;;;7.10;;
72813;SDS011;60945;48.516;-2.768;2023-03-04T03:34:47;10.40;;;7.43;;
72813;SDS011;60945;48.516;-2.768;2023-03-04T03:37:13;7.63;;;6.78;;
72813;SDS011;60945;48.516;-2.768;2023-03-04T03:39:38;7.63;;;6.85;;
72813;SDS011;60945;48.516;-2.768;2023-03-04T03:42:04;9.40;;;7.22;;
72813;SDS011;60945;48.516;-2.768;2023-03-04T03:44:30;9.15;;;7.00;;
72813;SDS011;60945;48.516;-2.768;2023-03-04T03:46:55;10.00;;;7.95;;
72813;SDS011;60945;48.516;-2.768;2023-03-04T03:49:21;7.72;;;6.88;;
72813;SDS011;60945;48.516;-2.768;2023-03-04T03:51:47;8.63;;;7.53;;
72813;SDS011;60945;48.516;-2.768;2023-03-04T03:54:13;10.13;;;7.57;;
72813;SDS011;60945;48.516;-2.768;2023-03-04T03:56:38;10.02;;;7.32;;
72813;SDS011;60945;48.516;-2.768;2023-03-04T03:59:04;11.45;;;7.28;;
72813;SDS011;60945;48.516;-2.768;2023-03-04T04:01:30;9.95;;;7.47;;
72813;SDS011;60945;48.516;-2.768;2023-03-04T04:03:57;10.45;;;7.63;;
72813;SDS011;60945;48.516;-2.768;2023-03-04T04:06:23;12.55;;;8.32;;
72813;SDS011;60945;48.516;-2.768;2023-03-04T04:08:49;9.52;;;8.43;;
72813;SDS011;60945;48.516;-2.768;2023-03-04T04:11:15;12.52;;;8.23;;
72813;SDS011;60945;48.516;-2.768;2023-03-04T04:13:41;9.18;;;8.00;;
72813;SDS011;60945;48.516;-2.768;2023-03-04T04:16:06;13.05;;;8.18;;
72813;SDS011;60945;48.516;-2.768;2023-03-04T04:18:33;9.00;;;7.80;;
72813;SDS011;60945;48.516;-2.768;2023-03-04T04:20:59;9.98;;;9.07;;
72813;SDS011;60945;48.516;-2.768;2023-03-04T04:23:24;9.90;;;8.73;;
72813;SDS011;60945;48.516;-2.768;2023-03-04T04:25:50;10.63;;;8.93;;
72813;SDS011;60945;48.516;-2.768;2023-03-04T04:28:18;11.35;;;7.95;;
72813;SDS011;60945;48.516;-2.768;2023-03-04T04:30:44;10.88;;;8.60;;
72813;SDS011;60945;48.516;-2.768;2023-03-04T04:33:09;12.23;;;8.52;;
72813;SDS011;60945;48.516;-2.768;2023-03-04T04:35:35;10.02;;;8.13;;
72813;SDS011;60945;48.516;-2.768;2023-03-04T04:38:02;12.32;;;8.50;;
72813;SDS011;60945;48.516;-2.768;2023-03-04T04:40:28;9.50;;;8.30;;
72813;SDS011;60945;48.516;-2.768;2023-03-04T04:42:54;12.27;;;9.00;;
72813;SDS011;60945;48.516;-2.768;2023-03-04T04:45:21;11.02;;;9.32;;
72813;SDS011;60945;48.516;-2.768;2023-03-04T04:47:48;11.10;;;8.50;;
72813;SDS011;60945;48.516;-2.768;2023-03-04T04:50:15;10.35;;;8.07;;
72813;SDS011;60945;48.516;-2.768;2023-03-04T04:52:41;9.70;;;8.38;;
72813;SDS011;60945;48.516;-2.768;2023-03-04T04:55:06;14.77;;;8.93;;
72813;SDS011;60945;48.516;-2.768;2023-03-04T04:57:33;9.52;;;8.23;;
72813;SDS011;60945;48.516;-2.768;2023-03-04T04:59:59;14.25;;;9.00;;
72813;SDS011;60945;48.516;-2.768;2023-03-04T05:02:24;9.45;;;8.50;;
72813;SDS011;60945;48.516;-2.768;2023-03-04T05:04:50;14.15;;;9.60;;
72813;SDS011;60945;48.516;-2.768;2023-03-04T05:07:16;10.90;;;9.38;;
72813;SDS011;60945;48.516;-2.768;2023-03-04T05:09:44;10.55;;;9.45;;
72813;SDS011;60945;48.516;-2.768;2023-03-04T05:12:10;10.98;;;8.55;;
72813;SDS011;60945;48.516;-2.768;2023-03-04T05:14:36;10.15;;;9.05;;
72813;SDS011;60945;48.516;-2.768;2023-03-04T05:17:01;11.68;;;9.20;;
72813;SDS011;60945;48.516;-2.768;2023-03-04T05:19:28;12.27;;;9.00;;
72813;SDS011;60945;48.516;-2.768;2023-03-04T05:21:53;13.48;;;9.73;;
72813;SDS011;60945;48.516;-2.768;2023-03-04T05:24:19;11.93;;;9.13;;
72813;SDS011;60945;48.516;-2.768;2023-03-04T05:26:45;12.23;;;9.77;;
72813;SDS011;60945;48.516;-2.768;2023-03-04T05:29:11;13.82;;;10.65;;
72813;SDS011;60945;48.516;-2.768;2023-03-04T05:31:36;14.80;;;9.82;;
72813;SDS011;60945;48.516;-2.768;2023-03-04T05:34:02;13.35;;;10.27;;
72813;SDS011;60945;48.516;-2.768;2023-03-04T05:36:28;13.77;;;9.93;;
72813;SDS011;60945;48.516;-2.768;2023-03-04T05:38:53;13.82;;;10.73;;
72813;SDS011;60945;48.516;-2.768;2023-03-04T05:41:19;14.73;;;11.10;;
72813;SDS011;60945;48.516;-2.768;2023-03-04T05:43:46;15.43;;;10.45;;
72813;SDS011;60945;48.516;-2.768;2023-03-04T05:46:14;13.40;;;10.20;;
72813;SDS011;60945;48.516;-2.768;2023-03-04T05:48:40;14.50;;;11.98;;
72813;SDS011;60945;48.516;-2.768;2023-03-04T05:51:07;12.98;;;11.18;;
72813;SDS011;60945;48.516;-2.768;2023-03-04T05:53:32;12.65;;;10.10;;
72813;SDS011;60945;48.516;-2.768;2023-03-04T05:56:05;15.30;;;11.38;;
72813;SDS011;60945;48.516;-2.768;2023-03-04T05:58:35;11.95;;;10.07;;
72813;SDS011;60945;48.516;-2.768;2023-03-04T06:01:01;14.05;;;10.98;;
72813;SDS011;60945;48.516;-2.768;2023-03-04T06:03:27;14.10;;;10.13;;
72813;SDS011;60945;48.516;-2.768;2023-03-04T06:05:53;13.90;;;11.55;;
72813;SDS011;60945;48.516;-2.768;2023-03-04T06:08:19;15.80;;;11.10;;
72813;SDS011;60945;48.516;-2.768;2023-03-04T06:10:45;14.70;;;11.65;;
72813;SDS011;60945;48.516;-2.768;2023-03-04T06:13:11;16.83;;;11.68;;
72813;SDS011;60945;48.516;-2.768;2023-03-04T06:15:37;16.05;;;12.13;;
72813;SDS011;60945;48.516;-2.768;2023-03-04T06:18:04;14.60;;;11.90;;
72813;SDS011;60945;48.516;-2.768;2023-03-04T06:20:30;15.30;;;12.18;;
72813;SDS011;60945;48.516;-2.768;2023-03-04T06:22:56;15.75;;;11.93;;
72813;SDS011;60945;48.516;-2.768;2023-03-04T06:25:22;16.10;;;12.20;;
72813;SDS011;60945;48.516;-2.768;2023-03-04T06:27:48;17.05;;;11.98;;
72813;SDS011;60945;48.516;-2.768;2023-03-04T06:30:13;24.02;;;11.93;;
72813;SDS011;60945;48.516;-2.768;2023-03-04T06:32:39;22.25;;;12.57;;
72813;SDS011;60945;48.516;-2.768;2023-03-04T06:35:08;16.25;;;11.85;;
72813;SDS011;60945;48.516;-2.768;2023-03-04T06:37:37;17.23;;;12.85;;
72813;SDS011;60945;48.516;-2.768;2023-03-04T06:40:04;19.20;;;12.18;;
72813;SDS011;60945;48.516;-2.768;2023-03-04T06:42:31;17.83;;;12.35;;
72813;SDS011;60945;48.516;-2.768;2023-03-04T06:44:58;17.08;;;12.02;;
72813;SDS011;60945;48.516;-2.768;2023-03-04T06:47:23;17.48;;;12.55;;
72813;SDS011;60945;48.516;-2.768;2023-03-04T06:49:49;17.17;;;12.38;;
72813;SDS011;60945;48.516;-2.768;2023-03-04T06:52:15;17.98;;;13.02;;
72813;SDS011;60945;48.516;-2.768;2023-03-04T06:54:40;16.25;;;12.40;;
72813;SDS011;60945;48.516;-2.768;2023-03-04T06:57:06;17.80;;;13.13;;
72813;SDS011;60945;48.516;-2.768;2023-03-04T06:59:32;17.90;;;13.35;;
72813;SDS011;60945;48.516;-2.768;2023-03-04T07:01:58;18.75;;;14.48;;
72813;SDS011;60945;48.516;-2.768;2023-03-04T07:04:23;22.08;;;14.35;;
72813;SDS011;60945;48.516;-2.768;2023-03-04T07:06:49;19.02;;;14.10;;
72813;SDS011;60945;48.516;-2.768;2023-03-04T07:09:15;19.77;;;14.82;;
72813;SDS011;60945;48.516;-2.768;2023-03-04T07:11:42;18.83;;;13.93;;
72813;SDS011;60945;48.516;-2.768;2023-03-04T07:14:08;20.98;;;14.80;;
72813;SDS011;60945;48.516;-2.768;2023-03-04T07:16:34;18.98;;;14.23;;
72813;SDS011;60945;48.516;-2.768;2023-03-04T07:19:00;19.65;;;14.55;;
72813;SDS011;60945;48.516;-2.768;2023-03-04T07:21:25;20.15;;;15.45;;
72813;SDS011;60945;48.516;-2.768;2023-03-04T07:23:52;22.65;;;15.13;;
72813;SDS011;60945;48.516;-2.768;2023-03-04T07:26:17;18.88;;;14.38;;
72813;SDS011;60945;48.516;-2.768;2023-03-04T07:28:43;20.00;;;14.73;;
72813;SDS011;60945;48.516;-2.768;2023-03-04T07:31:10;20.02;;;14.13;;
72813;SDS011;60945;48.516;-2.768;2023-03-04T07:33:37;21.85;;;14.60;;
72813;SDS011;60945;48.516;-2.768;2023-03-04T07:36:03;22.00;;;15.57;;
72813;SDS011;60945;48.516;-2.768;2023-03-04T07:38:29;22.13;;;14.68;;
72813;SDS011;60945;48.516;-2.768;2023-03-04T07:40:57;23.45;;;15.40;;
72813;SDS011;60945;48.516;-2.768;2023-03-04T07:43:24;21.70;;;15.55;;
72813;SDS011;60945;48.516;-2.768;2023-03-04T07:45:49;21.42;;;14.90;;
72813;SDS011;60945;48.516;-2.768;2023-03-04T07:48:15;20.20;;;15.68;;
72813;SDS011;60945;48.516;-2.768;2023-03-04T07:50:41;20.52;;;15.00;;
72813;SDS011;60945;48.516;-2.768;2023-03-04T07:53:06;21.70;;;16.10;;
72813;SDS011;60945;48.516;-2.768;2023-03-04T07:55:32;20.42;;;15.27;;
72813;SDS011;60945;48.516;-2.768;2023-03-04T07:57:58;21.92;;;15.43;;
72813;SDS011;60945;48.516;-2.768;2023-03-04T08:00:23;20.83;;;16.17;;
72813;SDS011;60945;48.516;-2.768;2023-03-04T08:02:49;22.10;;;16.42;;
72813;SDS011;60945;48.516;-2.768;2023-03-04T08:05:15;21.00;;;16.15;;
72813;SDS011;60945;48.516;-2.768;2023-03-04T08:07:41;22.38;;;16.42;;
72813;SDS011;60945;48.516;-2.768;2023-03-04T08:10:06;23.35;;;15.90;;
72813;SDS011;60945;48.516;-2.768;2023-03-04T08:12:33;22.65;;;16.05;;
72813;SDS011;60945;48.516;-2.768;2023-03-04T08:15:00;21.75;;;16.13;;
72813;SDS011;60945;48.516;-2.768;2023-03-04T08:17:26;21.08;;;16.33;;
72813;SDS011;60945;48.516;-2.768;2023-03-04T08:19:53;22.50;;;16.23;;
72813;SDS011;60945;48.516;-2.768;2023-03-04T08:22:20;22.55;;;16.98;;
72813;SDS011;60945;48.516;-2.768;2023-03-04T08:24:45;25.95;;;16.73;;
72813;SDS011;60945;48.516;-2.768;2023-03-04T08:27:11;25.60;;;17.35;;
72813;SDS011;60945;48.516;-2.768;2023-03-04T08:29:37;23.70;;;16.75;;
72813;SDS011;60945;48.516;-2.768;2023-03-04T08:32:05;19.67;;;15.63;;
72813;SDS011;60945;48.516;-2.768;2023-03-04T08:34:30;20.92;;;16.17;;
72813;SDS011;60945;48.516;-2.768;2023-03-04T08:36:56;23.88;;;17.15;;
72813;SDS011;60945;48.516;-2.768;2023-03-04T08:39:22;22.45;;;16.50;;
72813;SDS011;60945;48.516;-2.768;2023-03-04T08:41:47;23.90;;;16.75;;
72813;SDS011;60945;48.516;-2.768;2023-03-04T08:44:13;21.52;;;16.40;;
72813;SDS011;60945;48.516;-2.768;2023-03-04T08:46:40;23.13;;;16.17;;
72813;SDS011;60945;48.516;-2.768;2023-03-04T08:49:07;22.38;;;16.17;;
72813;SDS011;60945;48.516;-2.768;2023-03-04T08:51:35;23.13;;;16.08;;
72813;SDS011;60945;48.516;-2.768;2023-03-04T08:54:01;21.13;;;15.98;;
72813;SDS011;60945;48.516;-2.768;2023-03-04T08:56:27;21.65;;;17.38;;
72813;SDS011;60945;48.516;-2.768;2023-03-04T08:58:56;24.60;;;17.63;;
72813;SDS011;60945;48.516;-2.768;2023-03-04T09:01:22;22.70;;;16.38;;
72813;SDS011;60945;48.516;-2.768;2023-03-04T09:03:48;21.48;;;16.10;;
72813;SDS011;60945;48.516;-2.768;2023-03-04T09:06:14;20.08;;;15.73;;
72813;SDS011;60945;48.516;-2.768;2023-03-04T09:08:41;21.17;;;16.45;;
72813;SDS011;60945;48.516;-2.768;2023-03-04T09:11:08;19.90;;;15.95;;
72813;SDS011;60945;48.516;-2.768;2023-03-04T09:13:34;18.80;;;15.45;;
72813;SDS011;60945;48.516;-2.768;2023-03-04T09:16:00;20.83;;;16.45;;
72813;SDS011;60945;48.516;-2.768;2023-03-04T09:18:27;16.42;;;13.48;;
72813;SDS011;60945;48.516;-2.768;2023-03-04T09:20:53;19.35;;;14.18;;
72813;SDS011;60945;48.516;-2.768;2023-03-04T09:23:19;19.40;;;14.02;;
72813;SDS011;60945;48.516;-2.768;2023-03-04T09:25:45;18.48;;;14.35;;
72813;SDS011;60945;48.516;-2.768;2023-03-04T09:28:13;16.88;;;14.40;;
72813;SDS011;60945;48.516;-2.768;2023-03-04T09:30:40;19.33;;;14.43;;
72813;SDS011;60945;48.516;-2.768;2023-03-04T09:33:08;19.15;;;13.82;;
72813;SDS011;60945;48.516;-2.768;2023-03-04T09:35:34;17.20;;;14.02;;
72813;SDS011;60945;48.516;-2.768;2023-03-04T09:38:00;16.90;;;12.77;;
72813;SDS011;60945;48.516;-2.768;2023-03-04T09:40:29;16.50;;;13.00;;
72813;SDS011;60945;48.516;-2.768;2023-03-04T09:43:02;15.68;;;12.40;;
72813;SDS011;60945;48.516;-2.768;2023-03-04T09:45:35;14.00;;;12.25;;
72813;SDS011;60945;48.516;-2.768;2023-03-04T09:48:05;15.68;;;12.35;;
72813;SDS011;60945;48.516;-2.768;2023-03-04T09:50:34;13.77;;;11.40;;
72813;SDS011;60945;48.516;-2.768;2023-03-04T09:53:14;14.55;;;11.55;;
72813;SDS011;60945;48.516;-2.768;2023-03-04T09:55:48;17.23;;;12.73;;
72813;SDS011;60945;48.516;-2.768;2023-03-04T10:04:13;15.77;;;12.75;;
72813;SDS011;60945;48.516;-2.768;2023-03-04T10:06:46;14.73;;;11.98;;
72813;SDS011;60945;48.516;-2.768;2023-03-04T10:09:25;15.00;;;12.40;;
72813;SDS011;60945;48.516;-2.768;2023-03-04T10:12:11;15.88;;;12.43;;
72813;SDS011;60945;48.516;-2.768;2023-03-04T10:19:45;15.07;;;13.05;;
72813;SDS011;60945;48.516;-2.768;2023-03-04T10:25:28;14.68;;;12.73;;
72813;SDS011;60945;48.516;-2.768;2023-03-04T10:27:59;14.30;;;11.88;;
72813;SDS011;60945;48.516;-2.768;2023-03-04T10:33:21;13.10;;;11.57;;
72813;SDS011;60945;48.516;-2.768;2023-03-04T10:36:37;15.57;;;11.65;;
72813;SDS011;60945;48.516;-2.768;2023-03-04T10:38:38;12.70;;;11.13;;
72813;SDS011;60945;48.516;-2.768;2023-03-04T10:41:13;13.75;;;11.10;;
72813;SDS011;60945;48.516;-2.768;2023-03-04T10:44:01;13.13;;;10.40;;
72813;SDS011;60945;48.516;-2.768;2023-03-04T10:46:36;14.32;;;11.02;;
72813;SDS011;60945;48.516;-2.768;2023-03-04T10:49:03;10.43;;;9.32;;
72813;SDS011;60945;48.516;-2.768;2023-03-04T10:51:28;15.18;;;9.85;;
72813;SDS011;60945;48.516;-2.768;2023-03-04T10:54:00;13.48;;;10.18;;
72813;SDS011;60945;48.516;-2.768;2023-03-04T10:56:38;13.85;;;11.02;;
72813;SDS011;60945;48.516;-2.768;2023-03-04T11:02:05;11.82;;;8.57;;
72813;SDS011;60945;48.516;-2.768;2023-03-04T11:05:33;12.07;;;9.32;;
72813;SDS011;60945;48.516;-2.768;2023-03-04T11:15:45;11.07;;;8.73;;
72813;SDS011;60945;48.516;-2.768;2023-03-04T11:18:15;12.30;;;9.18;;
72813;SDS011;60945;48.516;-2.768;2023-03-04T11:20:43;11.18;;;8.98;;
72813;SDS011;60945;48.516;-2.768;2023-03-04T11:26:20;9.80;;;7.68;;
72813;SDS011;60945;48.516;-2.768;2023-03-04T11:28:53;8.68;;;7.72;;
72813;SDS011;60945;48.516;-2.768;2023-03-04T11:39:36;11.07;;;7.82;;
72813;SDS011;60945;48.516;-2.768;2023-03-04T11:42:13;9.90;;;7.30;;
72813;SDS011;60945;48.516;-2.768;2023-03-04T11:44:41;8.23;;;7.20;;
72813;SDS011;60945;48.516;-2.768;2023-03-04T11:52:59;9.93;;;6.95;;
72813;SDS011;60945;48.516;-2.768;2023-03-04T11:55:39;11.38;;;7.95;;
72813;SDS011;60945;48.516;-2.768;2023-03-04T11:58:42;13.20;;;9.82;;
72813;SDS011;60945;48.516;-2.768;2023-03-04T12:01:09;11.40;;;7.70;;
72813;SDS011;60945;48.516;-2.768;2023-03-04T12:04:06;9.60;;;7.60;;
72813;SDS011;60945;48.516;-2.768;2023-03-04T12:20:56;7.60;;;6.47;;
72813;SDS011;60945;48.516;-2.768;2023-03-04T12:23:48;6.75;;;5.82;;
72813;SDS011;60945;48.516;-2.768;2023-03-04T12:29:27;6.22;;;5.07;;
72813;SDS011;60945;48.516;-2.768;2023-03-04T12:31:59;7.10;;;5.60;;
72813;SDS011;60945;48.516;-2.768;2023-03-04T12:34:45;6.95;;;6.10;;
72813;SDS011;60945;48.516;-2.768;2023-03-04T12:37:25;7.38;;;5.93;;
72813;SDS011;60945;48.516;-2.768;2023-03-04T12:40:22;8.85;;;6.45;;
72813;SDS011;60945;48.516;-2.768;2023-03-04T12:49:28;6.85;;;5.88;;
72813;SDS011;60945;48.516;-2.768;2023-03-04T12:57:13;9.95;;;5.60;;
72813;SDS011;60945;48.516;-2.768;2023-03-04T12:59:48;9.20;;;5.22;;
72813;SDS011;60945;48.516;-2.768;2023-03-04T13:02:35;8.13;;;5.90;;
72813;SDS011;60945;48.516;-2.768;2023-03-04T13:05:35;7.47;;;5.32;;
72813;SDS011;60945;48.516;-2.768;2023-03-04T13:08:32;6.57;;;5.32;;
72813;SDS011;60945;48.516;-2.768;2023-03-04T13:14:00;6.65;;;5.40;;
72813;SDS011;60945;48.516;-2.768;2023-03-04T13:19:43;7.72;;;5.00;;
72813;SDS011;60945;48.516;-2.768;2023-03-04T13:38:30;5.50;;;4.90;;
72813;SDS011;60945;48.516;-2.768;2023-03-04T13:43:47;5.28;;;4.78;;
72813;SDS011;60945;48.516;-2.768;2023-03-04T13:51:18;5.60;;;5.10;;
72813;SDS011;60945;48.516;-2.768;2023-03-04T13:56:34;5.97;;;4.93;;
72813;SDS011;60945;48.516;-2.768;2023-03-04T14:07:00;8.07;;;4.68;;
72813;SDS011;60945;48.516;-2.768;2023-03-04T14:09:57;8.30;;;4.15;;
72813;SDS011;60945;48.516;-2.768;2023-03-04T14:12:30;8.45;;;4.35;;
72813;SDS011;60945;48.516;-2.768;2023-03-04T14:15:03;7.18;;;4.55;;
72813;SDS011;60945;48.516;-2.768;2023-03-04T14:17:43;5.80;;;5.07;;
72813;SDS011;60945;48.516;-2.768;2023-03-04T14:23:28;8.85;;;4.90;;
72813;SDS011;60945;48.516;-2.768;2023-03-04T14:26:03;5.82;;;4.50;;
72813;SDS011;60945;48.516;-2.768;2023-03-04T14:28:30;6.55;;;4.60;;
72813;SDS011;60945;48.516;-2.768;2023-03-04T14:30:56;8.02;;;4.70;;
72813;SDS011;60945;48.516;-2.768;2023-03-04T14:33:27;7.15;;;5.00;;
72813;SDS011;60945;48.516;-2.768;2023-03-04T14:35:55;8.13;;;5.03;;
72813;SDS011;60945;48.516;-2.768;2023-03-04T14:41:01;7.78;;;4.95;;
72813;SDS011;60945;48.516;-2.768;2023-03-04T14:43:55;6.22;;;4.78;;
72813;SDS011;60945;48.516;-2.768;2023-03-04T14:46:33;8.68;;;5.03;;
72813;SDS011;60945;48.516;-2.768;2023-03-04T14:49:04;7.85;;;4.95;;
72813;SDS011;60945;48.516;-2.768;2023-03-04T14:51:35;7.32;;;4.75;;
72813;SDS011;60945;48.516;-2.768;2023-03-04T14:54:05;8.05;;;4.60;;
72813;SDS011;60945;48.516;-2.768;2023-03-04T14:56:34;6.75;;;4.60;;
72813;SDS011;60945;48.516;-2.768;2023-03-04T14:59:00;11.65;;;4.88;;
72813;SDS011;60945;48.516;-2.768;2023-03-04T15:01:31;5.57;;;4.93;;
72813;SDS011;60945;48.516;-2.768;2023-03-04T15:06:30;5.82;;;5.15;;
72813;SDS011;60945;48.516;-2.768;2023-03-04T15:08:59;6.80;;;5.57;;
72813;SDS011;60945;48.516;-2.768;2023-03-04T15:11:32;6.22;;;5.20;;
72813;SDS011;60945;48.516;-2.768;2023-03-04T15:14:38;8.70;;;5.60;;
72813;SDS011;60945;48.516;-2.768;2023-03-04T15:17:18;8.77;;;5.28;;
72813;SDS011;60945;48.516;-2.768;2023-03-04T15:19:45;7.68;;;5.35;;
72813;SDS011;60945;48.516;-2.768;2023-03-04T15:22:26;7.72;;;5.40;;
72813;SDS011;60945;48.516;-2.768;2023-03-04T15:24:52;5.95;;;5.35;;
72813;SDS011;60945;48.516;-2.768;2023-03-04T15:27:17;7.97;;;5.50;;
72813;SDS011;60945;48.516;-2.768;2023-03-04T15:29:50;7.78;;;5.50;;
72813;SDS011;60945;48.516;-2.768;2023-03-04T15:32:20;6.38;;;5.60;;
72813;SDS011;60945;48.516;-2.768;2023-03-04T15:34:46;7.90;;;6.10;;
72813;SDS011;60945;48.516;-2.768;2023-03-04T15:37:14;8.70;;;5.95;;
72813;SDS011;60945;48.516;-2.768;2023-03-04T15:39:44;7.47;;;5.80;;
72813;SDS011;60945;48.516;-2.768;2023-03-04T15:42:10;7.75;;;5.10;;
72813;SDS011;60945;48.516;-2.768;2023-03-04T15:44:37;9.55;;;5.95;;
72813;SDS011;60945;48.516;-2.768;2023-03-04T15:47:03;10.52;;;6.35;;
72813;SDS011;60945;48.516;-2.768;2023-03-04T15:49:32;6.25;;;5.65;;
72813;SDS011;60945;48.516;-2.768;2023-03-04T15:51:58;7.50;;;5.57;;
72813;SDS011;60945;48.516;-2.768;2023-03-04T15:54:26;7.53;;;5.55;;
72813;SDS011;60945;48.516;-2.768;2023-03-04T15:56:53;9.77;;;6.68;;
72813;SDS011;60945;48.516;-2.768;2023-03-04T15:59:21;9.00;;;5.80;;
72813;SDS011;60945;48.516;-2.768;2023-03-04T16:01:47;9.70;;;6.43;;
72813;SDS011;60945;48.516;-2.768;2023-03-04T16:04:13;9.43;;;5.90;;
72813;SDS011;60945;48.516;-2.768;2023-03-04T16:06:40;9.70;;;6.70;;
72813;SDS011;60945;48.516;-2.768;2023-03-04T16:09:09;6.95;;;5.40;;
72813;SDS011;60945;48.516;-2.768;2023-03-04T16:11:39;7.80;;;5.93;;
72813;SDS011;60945;48.516;-2.768;2023-03-04T16:14:08;9.00;;;5.65;;
72813;SDS011;60945;48.516;-2.768;2023-03-04T16:16:35;9.32;;;5.85;;
72813;SDS011;60945;48.516;-2.768;2023-03-04T16:19:01;9.15;;;5.63;;
72813;SDS011;60945;48.516;-2.768;2023-03-04T16:21:27;9.00;;;6.18;;
72813;SDS011;60945;48.516;-2.768;2023-03-04T16:23:52;9.85;;;6.30;;
72813;SDS011;60945;48.516;-2.768;2023-03-04T16:26:20;9.40;;;6.10;;
72813;SDS011;60945;48.516;-2.768;2023-03-04T16:28:47;9.70;;;6.47;;
72813;SDS011;60945;48.516;-2.768;2023-03-04T16:31:16;9.88;;;5.82;;
72813;SDS011;60945;48.516;-2.768;2023-03-04T16:33:46;6.30;;;5.68;;
72813;SDS011;60945;48.516;-2.768;2023-03-04T16:36:13;7.05;;;6.35;;
72813;SDS011;60945;48.516;-2.768;2023-03-04T16:38:50;9.80;;;6.18;;